Mikkel Delaney

Recruteur - OB
16 Déc 2027
Jeudi
Processus

Personnalité

Adaptabilité (12) Ambition (1) Controverse (8) Loyauté (1) Pression (9) Professionnalisme (5) Sportivité (1) Tempérament (20)

Profil

Style d'entraînement Démocratique
Diplôme National B
Détermination 7
Gestion des joueurs 8
Motivation 12
Discipline 9
Satisfaction professionnelle
100%
Fatigue
0%
Rôle Recruteur
Salaire 39.3K p/s
Contrat 14.03.2028

Performance

Comportement Bon
Efficacité de l'entraînement
35%
Développement des joueurs
50%
Prévention des blessures
55%
Mise en place tactique
25%

Événements récents

A participé à une réunion de recrutement 7j
A participé à une réunion de recrutement 7j
A participé à une réunion de recrutement 14j
A participé à une réunion de recrutement 14j
A participé à une réunion de recrutement 21j
A participé à une réunion de recrutement 21j
A participé à une réunion de recrutement 28j
A participé à une réunion de recrutement 28j

Suivi en cours

50
Joueur Club Statut Capacité Confiance Observé Dernière observation Dernier vote
Martim Cunha Porto Actif 98 / 107 40% 3 29.05.2027 -
Jan Bürger Gillingham Actif 115 / 121 40% 1 29.05.2027 -
Sascha Britschgi Padova Actif 113 / 134 40% 2 28.05.2027 -
Yussif Saidu Zaragoza Actif 127 / 134 40% 2 28.05.2027 -
Bernardo Lima Porto Actif 96 / 102 40% 1 28.05.2027 -
Peter Amidu Acquah Asante Kotoko Actif 88 / 94 40% 2 24.05.2027 -
Caleb Yirenkyi Coventry City Actif 141 / 138 40% 2 24.05.2027 -
Rayan Bournemouth Actif 134 / 141 40% 1 21.05.2027 Plus d'infos
Kutlwano Letlhaku Ajax Cape Town Actif 125 / 116 40% 1 21.05.2027 -
Davide Bartesaghi AC Milan Actif 134 / 140 40% 1 21.05.2027 -
Mfundo Vilakazi Kaizer Chiefs Actif 125 / 106 40% 3 19.05.2027 -
Monty Batlhabane Polokwane City Actif 90 / 107 40% 2 19.05.2027 -
Daniel Vernattus Metalist Actif 84 / 102 40% 1 19.05.2027 -
Calum Agius Crewe Alexandra Actif 100 / 100 40% 2 18.05.2027 -
Amaury Morales Pumas UNAM Actif 113 / 111 40% 1 18.05.2027 -
Christos Mouzakitis Hull City Actif 133 / 141 40% 2 15.05.2027 -
Jayden Addai Como Actif 136 / 142 40% 2 15.05.2027 -
Kai Enslin Charlton Athletic Actif 90 / 100 40% 1 15.05.2027 -
Kamarni Ryan Burton Albion Actif 99 / 94 40% 3 12.05.2027 -
André Miranda Porto Actif 102 / 111 40% 1 12.05.2027 -
Matías Gómez Granada Actif 113 / 129 40% 2 11.05.2027 -
Víctor Guzmán Sporting CP Actif 98 / 103 40% 1 11.05.2027 -
Adam Bakoune Ospitaletto Actif 101 / 103 40% 1 11.05.2027 -
Othmane Maamma Watford Actif 127 / 129 40% 2 09.05.2027 -
Leo Castledine Middlesbrough Actif 134 / 136 40% 1 07.05.2027 -
Shea Lacey Wolverhampton Actif 127 / 126 40% 4 05.05.2027 -
Ethan Williams Peterborough United Actif 120 / 124 40% 1 05.05.2027 -
Gilberto Mora Atlético Madrid Actif 131 / 137 40% 3 03.05.2027 -
Leandro Martins Benfica Actif 97 / 98 40% 2 02.05.2027 -
Riley Owen Trento Actif 106 / 101 40% 1 02.05.2027 -
Ishmael Addo Heart of Lions Actif 91 / 100 40% 3 24.04.2027 -
Luke Baartman ES Mostaganem Actif 114 / 123 40% 1 20.04.2027 -
Alex Amorim Genoa Actif 135 / 143 40% 1 20.04.2027 -
Thulani Dala Platinum Stars Actif 84 / 94 40% 1 17.04.2027 -
João Abreu Porto Actif 87 / 105 40% 1 17.04.2027 -
Lander Astiazarán Real Sociedad Actif 105 / 103 40% 2 13.04.2027 -
David Ozoh Derby County Actif 125 / 136 40% 3 13.04.2027 -
Zack Nelson Bromley Actif 94 / 113 40% 2 12.04.2027 -
Oscar Schwartau Norwich City Actif 124 / 133 40% 1 12.04.2027 -
Dramane Kamagaté USM Alger Actif 106 / 115 40% 1 12.04.2027 -
Christ Inao Oulaï Fiorentina Actif 134 / 145 40% 2 11.04.2027 -
Rocco Vata Watford Actif 125 / 117 40% 1 11.04.2027 -
Jofre Torrents Ajax Actif 122 / 136 40% 1 10.04.2027 -
Rodrigo Mora AS Roma Actif 133 / 144 40% 1 02.04.2027 -
Fuzy Taylor Medeama Actif 80 / 103 40% 1 01.04.2027 -
Joel McGregor Swindon Town Actif 99 / 90 40% 1 26.03.2027 -
Ibrahim Maza Bayer Leverkusen Actif 146 / 145 40% 1 26.03.2027 -
Percy Jali Free State Stars Actif 90 / 104 40% 1 31.12.2026 -
Keagan Phiri Platinum Stars Actif 84 / 88 40% 1 31.12.2026 -
Maxime Soulas SonderjyskE Actif 113 / 111 58% 1 03.08.2026 -